Terminal Aerodrome Forecast
Issued by NWS

Home | Current Version | Previous Version | Text Only | Print | Product List | Glossary On
Versions: 1 2 3 4 5 6 7 8 9 10 11 12 13 14 15 16 17 18 19 20 21 22 23 24 25 26 27 28 29 30 31 32 33 34 35 36 37
821
FTAK31 PANC 211819 AAA
TAFAAQ
TAF AMD
PAAQ 211819Z 2118/2218 VRB03KT 3SM -SN BR OVC030
      TEMPO 2118/2120 1 1/2SM -SN BR BKN020
     FM212000 VRB03KT 1 1/2SM -SN BR BKN020
      TEMPO 2120/2124 3/4SM -SN BR VV012
     FM220300 VRB03KT 3SM -SN OVC020
     FM220600 VRB03KT 5SM -SN SCT020 OVC030
     FM220900 VRB03KT P6SM VCFG SCT003=

USA.gov is the U.S. government's official web portal to all federal, state and local government web resources and services.